createdAt,value
2023-01-17T00:02:19.324Z,97645.22
2023-01-17T00:05:05.749Z,97645.28
2023-01-17T00:07:52.361Z,97635.97
2023-01-17T00:10:22.385Z,97627.50
2023-01-17T00:12:55.236Z,97615.66
2023-01-17T00:15:26.251Z,97620.84
2023-01-17T00:17:53.900Z,97627.22
2023-01-17T00:20:42.562Z,97627.28
2023-01-17T00:23:40.888Z,97640.41
2023-01-17T00:26:19.176Z,97637.91
2023-01-17T00:28:47.890Z,97625.53
2023-01-17T00:31:16.447Z,97629.19
2023-01-17T00:33:43.905Z,97637.97
2023-01-17T00:36:11.970Z,97624.19
2023-01-17T00:38:40.360Z,97625.13
2023-01-17T00:41:13.266Z,97629.56
2023-01-17T00:43:59.858Z,97623.41
2023-01-17T00:46:46.105Z,97624.16
2023-01-17T00:49:32.377Z,97623.87
2023-01-17T00:52:18.112Z,97621.38
2023-01-17T00:55:04.441Z,97607.47
2023-01-17T00:57:50.347Z,97611.09
2023-01-17T01:00:39.955Z,97613.47
2023-01-17T01:03:29.857Z,97623.34
2023-01-17T01:06:16.252Z,97618.78
2023-01-17T01:09:02.015Z,97621.31
2023-01-17T01:11:48.254Z,97618.00
2023-01-17T01:14:33.987Z,97608.19
2023-01-17T01:17:19.938Z,97626.03
2023-01-17T01:20:05.813Z,97634.53
2023-01-17T01:22:52.028Z,97638.63
2023-01-17T01:25:38.024Z,97635.91
2023-01-17T01:28:26.406Z,97643.38
2023-01-17T01:31:12.121Z,97642.72
2023-01-17T01:33:40.015Z,97651.44
2023-01-17T01:36:08.954Z,97648.75
2023-01-17T01:38:36.596Z,97657.56
2023-01-17T01:41:04.555Z,97651.34
2023-01-17T01:43:44.540Z,97642.94
2023-01-17T01:46:25.841Z,97647.91
2023-01-17T01:48:58.259Z,97640.97
2023-01-17T01:51:30.023Z,97626.56
2023-01-17T01:54:06.851Z,97619.53
2023-01-17T01:56:36.415Z,97603.81
2023-01-17T01:59:07.480Z,97601.66
2023-01-17T02:01:36.129Z,97591.53
2023-01-17T02:04:04.623Z,97594.84
2023-01-17T02:07:10.336Z,97590.88
2023-01-17T02:09:37.884Z,97597.97
2023-01-17T02:12:05.564Z,97595.72
2023-01-17T02:14:32.954Z,97594.56
2023-01-17T02:17:11.335Z,97590.66
2023-01-17T02:19:50.584Z,97594.03
2023-01-17T02:22:48.273Z,97602.94
2023-01-17T02:25:36.685Z,97593.47
2023-01-17T02:28:30.423Z,97598.00
2023-01-17T02:31:04.919Z,97588.62
2023-01-17T02:33:47.884Z,97591.91
2023-01-17T02:36:23.048Z,97588.41
2023-01-17T02:39:03.037Z,97576.91
2023-01-17T02:41:34.380Z,97592.81
2023-01-17T02:44:02.902Z,97591.63
2023-01-17T02:46:30.498Z,97576.03
2023-01-17T02:48:58.347Z,97564.34
2023-01-17T02:51:32.060Z,97543.16
2023-01-17T02:54:17.976Z,97540.06
2023-01-17T02:57:30.315Z,97539.78
2023-01-17T03:00:00.193Z,97536.72
2023-01-17T03:02:35.195Z,97527.88
2023-01-17T03:05:10.810Z,97520.75
2023-01-17T03:07:40.042Z,97520.69
2023-01-17T03:10:08.481Z,97515.72
2023-01-17T03:12:37.754Z,97510.72
2023-01-17T03:15:12.916Z,97507.63
2023-01-17T03:17:45.459Z,97508.00
2023-01-17T03:20:13.278Z,97504.00
2023-01-17T03:22:40.648Z,97503.84
2023-01-17T03:25:08.229Z,97497.06
2023-01-17T03:27:36.024Z,97497.94
2023-01-17T03:30:04.607Z,97491.88
2023-01-17T03:32:32.015Z,97493.47
2023-01-17T03:34:59.686Z,97482.06
2023-01-17T03:37:27.246Z,97480.38
2023-01-17T03:39:55.008Z,97477.72
2023-01-17T03:42:22.710Z,97476.69
2023-01-17T03:44:50.063Z,97476.56
2023-01-17T03:47:17.453Z,97474.94
2023-01-17T03:49:45.203Z,97471.97
2023-01-17T03:52:12.582Z,97468.50
2023-01-17T03:54:39.986Z,97462.47
2023-01-17T03:57:08.598Z,97466.81
2023-01-17T03:59:35.966Z,97471.13
2023-01-17T04:02:03.438Z,97471.09
2023-01-17T04:04:31.179Z,97458.13
2023-01-17T04:06:58.576Z,97458.81
2023-01-17T04:09:25.952Z,97458.06
2023-01-17T04:11:53.930Z,97459.88
2023-01-17T04:14:21.358Z,97451.22
2023-01-17T04:16:48.877Z,97457.22
2023-01-17T04:19:17.365Z,97464.91
2023-01-17T04:21:44.738Z,97464.72
2023-01-17T04:24:12.139Z,97478.06
2023-01-17T04:26:39.835Z,97476.72
2023-01-17T04:29:07.203Z,97475.53
2023-01-17T04:31:34.675Z,97478.13
2023-01-17T04:34:03.059Z,97469.00
2023-01-17T04:36:30.425Z,97477.50
2023-01-17T04:38:57.807Z,97474.84
2023-01-17T04:41:25.504Z,97478.28
2023-01-17T04:43:52.899Z,97478.41
2023-01-17T04:46:20.283Z,97472.75
2023-01-17T04:48:48.874Z,97477.22
2023-01-17T04:51:16.300Z,97472.91
2023-01-17T04:53:43.749Z,97467.12
2023-01-17T04:56:11.441Z,97489.44
2023-01-17T04:58:38.855Z,97484.69
2023-01-17T05:01:08.319Z,97487.06
2023-01-17T05:03:36.350Z,97474.59
2023-01-17T05:06:03.961Z,97480.03
2023-01-17T05:08:31.499Z,97471.47
2023-01-17T05:10:59.223Z,97475.97
2023-01-17T05:13:26.724Z,97478.06
2023-01-17T05:15:54.140Z,97485.00
2023-01-17T05:18:21.879Z,97482.09
2023-01-17T05:20:49.311Z,97482.25
2023-01-17T05:23:16.869Z,97487.53
2023-01-17T05:25:44.917Z,97487.06
2023-01-17T05:28:13.213Z,97499.03
2023-01-17T05:30:41.227Z,97492.63
2023-01-17T05:33:10.315Z,97492.16
2023-01-17T05:35:38.244Z,97498.03
2023-01-17T05:38:05.696Z,97503.66
2023-01-17T05:40:34.153Z,97500.44
2023-01-17T05:43:03.869Z,97504.72
2023-01-17T05:45:32.525Z,97509.09
2023-01-17T05:48:00.648Z,97516.28
2023-01-17T05:50:30.915Z,97531.78
2023-01-17T05:53:00.569Z,97533.81
2023-01-17T05:55:28.947Z,97545.09
2023-01-17T05:57:57.740Z,97548.50
2023-01-17T06:00:25.479Z,97543.00
2023-01-17T06:02:57.317Z,97547.88
2023-01-17T06:05:26.481Z,97553.87
2023-01-17T06:07:54.838Z,97550.38
2023-01-17T06:10:23.011Z,97564.16
2023-01-17T06:13:00.719Z,97566.16
2023-01-17T06:15:28.553Z,97574.63
2023-01-17T06:17:56.220Z,97568.72
2023-01-17T06:20:23.688Z,97572.66
2023-01-17T06:22:51.444Z,97575.94
2023-01-17T06:25:18.853Z,97571.63
2023-01-17T06:27:46.350Z,97571.47
2023-01-17T06:30:14.302Z,97577.13
2023-01-17T06:32:41.695Z,97585.41
2023-01-17T06:35:09.378Z,97583.75
2023-01-17T06:37:37.516Z,97592.25
2023-01-17T06:40:05.460Z,97597.59
2023-01-17T06:42:32.817Z,97596.69
2023-01-17T06:45:00.511Z,97611.62
2023-01-17T06:47:27.967Z,97609.97
2023-01-17T06:49:55.343Z,97615.41
2023-01-17T06:52:23.032Z,97616.28
2023-01-17T06:54:50.388Z,97628.03
2023-01-17T06:57:17.731Z,97629.13
2023-01-17T06:59:45.454Z,97643.50
2023-01-17T07:02:12.874Z,97631.09
2023-01-17T07:04:40.317Z,97645.00
2023-01-17T07:07:08.170Z,97644.72
2023-01-17T07:09:35.963Z,97650.38
2023-01-17T07:12:03.728Z,97653.81
2023-01-17T07:14:31.664Z,97651.31
2023-01-17T07:16:59.165Z,97657.53
2023-01-17T07:19:26.601Z,97673.66
2023-01-17T07:21:54.445Z,97676.44
2023-01-17T07:24:22.426Z,97681.41
2023-01-17T07:26:51.002Z,97683.53
2023-01-17T07:29:19.198Z,97685.19
2023-01-17T07:31:48.841Z,97686.34
2023-01-17T07:34:16.279Z,97695.25
2023-01-17T07:36:44.013Z,97696.88
2023-01-17T07:39:11.447Z,97705.13
2023-01-17T07:41:41.478Z,97716.09
2023-01-17T07:44:12.072Z,97726.81
2023-01-17T07:46:40.184Z,97736.47
2023-01-17T07:49:07.555Z,97743.44
2023-01-17T07:51:35.293Z,97749.31
2023-01-17T07:54:02.700Z,97750.66
2023-01-17T07:56:30.075Z,97752.72
2023-01-17T07:58:57.759Z,97757.94
2023-01-17T08:01:25.258Z,97766.00
2023-01-17T08:03:54.876Z,97763.66
2023-01-17T08:06:24.809Z,97769.38
2023-01-17T08:08:58.877Z,97773.97
2023-01-17T08:11:26.897Z,97774.69
2023-01-17T08:13:57.557Z,97775.00
2023-01-17T08:16:25.284Z,97775.69
2023-01-17T08:18:53.219Z,97778.16
2023-01-17T08:21:20.607Z,97785.66
2023-01-17T08:23:49.237Z,97778.75
2023-01-17T08:26:24.132Z,97786.78
2023-01-17T08:28:56.697Z,97787.19
2023-01-17T08:31:24.662Z,97790.09
2023-01-17T08:33:52.148Z,97803.78
2023-01-17T08:36:19.621Z,97805.97
2023-01-17T08:38:47.288Z,97808.81
2023-01-17T08:41:14.782Z,97798.56
2023-01-17T08:43:42.242Z,97802.97
2023-01-17T08:46:09.965Z,97804.25
2023-01-17T08:48:37.427Z,97794.00
2023-01-17T08:51:05.118Z,97802.44
2023-01-17T08:53:33.342Z,97800.56
2023-01-17T08:56:02.094Z,97805.37
2023-01-17T08:58:30.756Z,97794.44
2023-01-17T09:01:06.180Z,97790.53
2023-01-17T09:03:34.440Z,97789.75
2023-01-17T09:06:06.842Z,97791.88
2023-01-17T09:08:35.116Z,97790.16
2023-01-17T09:11:11.286Z,97803.78
2023-01-17T09:13:39.435Z,97813.34
2023-01-17T09:16:08.011Z,97808.69
2023-01-17T09:18:36.210Z,97809.75
2023-01-17T09:21:17.012Z,97817.47
2023-01-17T09:23:44.753Z,97820.34
2023-01-17T09:26:26.295Z,97815.38
2023-01-17T09:28:54.692Z,97815.69
2023-01-17T09:31:23.049Z,97820.94
2023-01-17T09:33:52.091Z,97822.22
2023-01-17T09:36:20.656Z,97826.03
2023-01-17T09:38:48.111Z,97834.88
2023-01-17T09:41:31.385Z,97836.75
2023-01-17T09:44:07.817Z,97855.47
2023-01-17T09:46:42.653Z,97867.09
2023-01-17T09:49:19.703Z,97869.81
2023-01-17T09:51:48.655Z,97861.69
2023-01-17T09:54:22.823Z,97865.53
2023-01-17T09:57:13.444Z,97855.81
2023-01-17T10:00:02.872Z,97879.22
2023-01-17T10:02:58.653Z,97876.63
2023-01-17T10:05:32.274Z,97886.16
2023-01-17T10:08:33.428Z,97879.78
2023-01-17T10:11:24.416Z,97880.59
2023-01-17T10:13:54.928Z,97885.53
2023-01-17T10:17:20.049Z,97877.94
2023-01-17T10:20:17.771Z,97884.72
2023-01-17T10:22:51.246Z,97876.88
2023-01-17T10:25:43.016Z,97879.50
2023-01-17T10:28:48.711Z,97871.94
2023-01-17T10:31:23.315Z,97877.41
2023-01-17T10:33:52.730Z,97866.59
2023-01-17T10:36:25.573Z,97872.03
2023-01-17T10:38:56.213Z,97865.59
2023-01-17T10:41:30.348Z,97856.59
2023-01-17T10:44:06.254Z,97844.41
2023-01-17T10:46:44.748Z,97841.84
2023-01-17T10:49:18.061Z,97840.78
2023-01-17T10:52:20.249Z,97850.66
2023-01-17T10:55:06.130Z,97847.53
2023-01-17T10:57:41.352Z,97838.34
2023-01-17T11:00:32.144Z,97830.63
2023-01-17T11:03:00.551Z,97827.66
2023-01-17T11:05:32.840Z,97823.78
2023-01-17T11:08:14.552Z,97805.50
2023-01-17T11:10:50.310Z,97804.69
2023-01-17T11:13:22.628Z,97810.97
2023-01-17T11:15:52.754Z,97815.13
2023-01-17T11:18:21.881Z,97798.19
2023-01-17T11:20:49.923Z,97794.84
2023-01-17T11:23:23.591Z,97786.34
2023-01-17T11:25:58.160Z,97784.75
2023-01-17T11:28:30.388Z,97778.25
2023-01-17T11:30:59.991Z,97790.22
2023-01-17T11:33:49.171Z,97781.22
2023-01-17T11:36:28.909Z,97766.41
2023-01-17T11:39:04.667Z,97764.81
2023-01-17T11:41:36.272Z,97757.88
2023-01-17T11:44:32.493Z,97752.66
2023-01-17T11:47:11.774Z,97752.66
2023-01-17T11:49:41.207Z,97768.28
2023-01-17T11:52:18.220Z,97757.47
2023-01-17T11:54:47.366Z,97772.31
2023-01-17T11:57:24.448Z,97772.38
2023-01-17T12:00:33.165Z,97773.50
2023-01-17T12:03:39.711Z,97781.63
2023-01-17T12:06:10.393Z,97791.72
2023-01-17T12:09:05.555Z,97798.56
2023-01-17T12:12:24.269Z,97790.53
2023-01-17T12:15:20.263Z,97792.53
2023-01-17T12:18:22.094Z,97794.12
2023-01-17T12:20:57.819Z,97785.59
2023-01-17T12:23:57.123Z,97789.00
2023-01-17T12:26:38.171Z,97784.34
2023-01-17T12:29:11.482Z,97783.69
2023-01-17T12:31:43.195Z,97778.19
2023-01-17T12:34:16.941Z,97776.59
2023-01-17T12:36:53.489Z,97784.78
2023-01-17T12:39:26.079Z,97787.31
2023-01-17T12:42:01.109Z,97780.94
2023-01-17T12:44:41.706Z,97786.41
2023-01-17T12:47:09.495Z,97793.22
2023-01-17T12:49:48.456Z,97787.19
2023-01-17T12:52:32.078Z,97778.56
2023-01-17T12:55:04.211Z,97761.34
2023-01-17T12:57:35.397Z,97768.09
2023-01-17T13:00:06.414Z,97761.28
2023-01-17T13:03:02.192Z,97762.81
2023-01-17T13:05:30.909Z,97768.78
2023-01-17T13:08:29.746Z,97763.59
2023-01-17T13:11:20.210Z,97757.59
2023-01-17T13:13:51.404Z,97761.09
2023-01-17T13:16:27.578Z,97767.28
2023-01-17T13:18:56.205Z,97771.75
2023-01-17T13:21:31.870Z,97782.13
2023-01-17T13:23:59.469Z,97782.09
2023-01-17T13:26:48.813Z,97779.56
2023-01-17T13:29:44.541Z,97775.22
2023-01-17T13:32:45.654Z,97769.97
2023-01-17T13:35:18.859Z,97765.41
2023-01-17T13:37:59.839Z,97752.16
2023-01-17T13:40:33.826Z,97749.88
2023-01-17T13:43:03.521Z,97752.50
2023-01-17T13:45:34.607Z,97743.59
2023-01-17T13:48:18.158Z,97738.00
2023-01-17T13:50:45.821Z,97745.28
2023-01-17T13:53:32.250Z,97737.47
2023-01-17T13:56:31.610Z,97737.56
2023-01-17T13:59:04.993Z,97725.56
2023-01-17T14:01:34.699Z,97729.94
2023-01-17T14:04:07.258Z,97710.75
2023-01-17T14:06:41.345Z,97699.53
2023-01-17T14:09:38.503Z,97690.87
2023-01-17T14:12:11.792Z,97679.66
2023-01-17T14:14:42.806Z,97680.44
2023-01-17T14:17:15.983Z,97668.47
2023-01-17T14:19:48.177Z,97669.78
2023-01-17T14:22:15.421Z,97663.78
2023-01-17T14:25:01.050Z,97656.75
2023-01-17T14:27:31.909Z,97656.78
2023-01-17T14:30:00.497Z,97652.53
2023-01-17T14:32:30.979Z,97646.09
2023-01-17T14:34:58.779Z,97643.88
2023-01-17T14:37:32.107Z,97637.19
2023-01-17T14:40:00.834Z,97626.31
2023-01-17T14:42:31.001Z,97635.19
2023-01-17T14:45:04.977Z,97630.78
2023-01-17T14:47:35.423Z,97633.44
2023-01-17T14:50:17.836Z,97618.16
2023-01-17T14:52:45.571Z,97609.66
2023-01-17T14:55:19.766Z,97611.38
2023-01-17T14:57:55.986Z,97601.84
2023-01-17T15:00:25.359Z,97606.19
2023-01-17T15:02:53.980Z,97614.78
2023-01-17T15:05:23.953Z,97615.72
2023-01-17T15:07:54.068Z,97618.91
2023-01-17T15:10:30.924Z,97613.81
2023-01-17T15:13:06.553Z,97618.97
2023-01-17T15:15:38.460Z,97613.59
2023-01-17T15:18:17.294Z,97614.47
2023-01-17T15:21:06.534Z,97612.69
2023-01-17T15:23:38.967Z,97612.78
2023-01-17T15:26:08.414Z,97608.78
2023-01-17T15:28:35.988Z,97610.50
2023-01-17T15:31:05.156Z,97602.69
2023-01-17T15:33:34.120Z,97602.66
2023-01-17T15:36:03.618Z,97594.00
2023-01-17T15:38:38.476Z,97594.03
2023-01-17T15:41:11.619Z,97589.75
2023-01-17T15:43:40.339Z,97591.44
2023-01-17T15:46:21.083Z,97592.25
2023-01-17T15:48:48.999Z,97581.03
2023-01-17T15:51:30.263Z,97581.84
2023-01-17T15:53:57.690Z,97575.84
2023-01-17T15:56:32.093Z,97575.84
2023-01-17T15:59:22.604Z,97571.53
2023-01-17T16:01:57.686Z,97568.84
2023-01-17T16:04:27.613Z,97553.34
2023-01-17T16:06:54.997Z,97554.19
2023-01-17T16:09:24.003Z,97543.81
2023-01-17T16:11:51.596Z,97546.44
2023-01-17T16:14:20.295Z,97542.97
2023-01-17T16:16:52.354Z,97549.84
2023-01-17T16:19:21.476Z,97547.25
2023-01-17T16:21:48.997Z,97553.34
2023-01-17T16:24:16.941Z,97549.91
2023-01-17T16:26:44.609Z,97542.09
2023-01-17T16:29:12.504Z,97542.91
2023-01-17T16:31:40.510Z,97526.50
2023-01-17T16:34:11.979Z,97523.91
2023-01-17T16:36:39.463Z,97530.69
2023-01-17T16:39:07.426Z,97529.06
2023-01-17T16:41:35.300Z,97522.16
2023-01-17T16:44:05.488Z,97521.09
2023-01-17T16:46:33.205Z,97511.59
2023-01-17T16:49:01.258Z,97506.94
2023-01-17T16:51:28.859Z,97502.75
2023-01-17T16:53:56.442Z,97502.97
2023-01-17T16:56:24.192Z,97500.31
2023-01-17T16:58:53.157Z,97504.22
2023-01-17T17:01:22.993Z,97497.25
2023-01-17T17:03:51.344Z,97505.06
2023-01-17T17:06:19.548Z,97503.00
2023-01-17T17:08:47.715Z,97490.97
2023-01-17T17:11:18.399Z,97496.69
2023-01-17T17:13:47.782Z,97489.19
2023-01-17T17:16:26.556Z,97484.03
2023-01-17T17:18:57.537Z,97476.88
2023-01-17T17:21:26.770Z,97471.66
2023-01-17T17:23:58.335Z,97467.84
2023-01-17T17:26:29.020Z,97454.47
2023-01-17T17:28:57.977Z,97456.06
2023-01-17T17:31:27.178Z,97459.12
2023-01-17T17:34:00.904Z,97448.25
2023-01-17T17:36:30.268Z,97445.66
2023-01-17T17:38:58.826Z,97440.84
2023-01-17T17:41:29.136Z,97435.62
2023-01-17T17:44:01.263Z,97444.03
2023-01-17T17:46:29.707Z,97430.38
2023-01-17T17:48:58.559Z,97418.31
2023-01-17T17:51:32.899Z,97419.19
2023-01-17T17:54:04.360Z,97407.97
2023-01-17T17:56:34.006Z,97395.81
2023-01-17T17:59:03.933Z,97399.31
2023-01-17T18:01:33.044Z,97374.16
2023-01-17T18:04:02.935Z,97360.31
2023-01-17T18:06:31.412Z,97351.47
2023-01-17T18:08:59.565Z,97348.16
2023-01-17T18:11:29.879Z,97338.69
2023-01-17T18:14:01.524Z,97334.41
2023-01-17T18:16:35.827Z,97336.81
2023-01-17T18:19:05.323Z,97330.44
2023-01-17T18:21:38.421Z,97315.38
2023-01-17T18:24:09.784Z,97307.59
2023-01-17T18:26:39.312Z,97313.44
2023-01-17T18:29:09.044Z,97307.47
2023-01-17T18:31:37.791Z,97297.94
2023-01-17T18:34:09.011Z,97307.38
2023-01-17T18:36:39.566Z,97301.06
2023-01-17T18:39:19.100Z,97288.50
2023-01-17T18:41:49.791Z,97279.69
2023-01-17T18:44:21.769Z,97268.16
2023-01-17T18:46:53.201Z,97281.53
2023-01-17T18:49:23.445Z,97276.59
2023-01-17T18:51:53.083Z,97270.59
2023-01-17T18:54:22.327Z,97254.75
2023-01-17T18:56:51.507Z,97259.56
2023-01-17T18:59:21.845Z,97250.53
2023-01-17T19:01:51.193Z,97253.00
2023-01-17T19:04:21.295Z,97241.56
2023-01-17T19:06:50.483Z,97242.84
2023-01-17T19:09:19.003Z,97235.25
2023-01-17T19:11:48.137Z,97225.78
2023-01-17T19:14:17.410Z,97222.09
2023-01-17T19:16:46.828Z,97212.69
2023-01-17T19:19:16.521Z,97227.91
2023-01-17T19:21:45.583Z,97203.81
2023-01-17T19:24:14.667Z,97200.12
2023-01-17T19:26:45.035Z,97199.16
2023-01-17T19:29:15.171Z,97169.91
2023-01-17T19:31:44.137Z,97156.31
2023-01-17T19:34:19.247Z,97155.91
2023-01-17T19:36:48.905Z,97148.78
2023-01-17T19:39:17.733Z,97131.06
2023-01-17T19:41:49.702Z,97128.69
2023-01-17T19:44:18.161Z,97101.88
2023-01-17T19:46:47.788Z,97109.41
2023-01-17T19:49:20.212Z,97095.28
2023-01-17T19:51:49.894Z,97089.72
2023-01-17T19:54:18.639Z,97082.25
2023-01-17T19:56:47.945Z,97071.34
2023-01-17T19:59:17.011Z,97069.34
2023-01-17T20:01:46.100Z,97071.94
2023-01-17T20:04:18.340Z,97067.34
2023-01-17T20:06:47.085Z,97078.97
2023-01-17T20:09:15.811Z,97099.00
2023-01-17T20:11:47.076Z,97087.97
2023-01-17T20:14:16.872Z,97077.56
2023-01-17T20:16:47.792Z,97078.59
2023-01-17T20:19:16.838Z,97084.75
2023-01-17T20:21:46.712Z,97083.56
2023-01-17T20:24:16.485Z,97079.78
2023-01-17T20:26:47.120Z,97083.88
2023-01-17T20:29:19.361Z,97080.38
2023-01-17T20:31:52.757Z,97078.38
2023-01-17T20:34:21.697Z,97062.69
2023-01-17T20:36:55.308Z,97057.84
2023-01-17T20:39:24.964Z,97066.22
2023-01-17T20:41:56.213Z,97063.06
2023-01-17T20:44:25.961Z,97058.53
2023-01-17T20:46:54.221Z,97053.16
2023-01-17T20:49:23.095Z,97040.53
2023-01-17T20:51:51.374Z,97033.56
2023-01-17T20:54:20.326Z,97019.44
2023-01-17T20:56:48.823Z,97005.09
2023-01-17T20:59:19.712Z,96992.88
2023-01-17T21:01:51.831Z,96990.28
2023-01-17T21:04:25.825Z,96994.56
2023-01-17T21:06:54.753Z,96989.72
2023-01-17T21:09:23.162Z,96972.38
2023-01-17T21:11:51.890Z,96967.25
2023-01-17T21:14:21.984Z,96957.88
2023-01-17T21:16:50.449Z,96964.41
2023-01-17T21:19:18.167Z,96958.09
2023-01-17T21:21:46.367Z,96953.06
2023-01-17T21:24:18.529Z,96954.91
2023-01-17T21:26:47.149Z,96946.50
2023-01-17T21:29:16.300Z,96950.75
2023-01-17T21:31:45.172Z,96940.41
2023-01-17T21:34:13.744Z,96929.44
2023-01-17T21:36:42.328Z,96916.44
2023-01-17T21:39:15.796Z,96908.50
2023-01-17T21:41:46.765Z,96917.53
2023-01-17T21:44:19.766Z,96920.25
2023-01-17T21:46:48.386Z,96926.75
2023-01-17T21:49:17.243Z,96941.22
2023-01-17T21:51:53.982Z,96939.34
2023-01-17T21:54:49.973Z,96942.34
2023-01-17T21:57:38.309Z,96941.53
2023-01-17T22:00:09.099Z,96929.31
2023-01-17T22:02:39.927Z,96931.88
2023-01-17T22:05:08.928Z,96928.53
2023-01-17T22:07:38.990Z,96924.25
2023-01-17T22:10:07.167Z,96918.81
2023-01-17T22:12:35.016Z,96924.22
2023-01-17T22:15:02.510Z,96911.28
2023-01-17T22:17:30.714Z,96903.22
2023-01-17T22:19:58.768Z,96897.94
2023-01-17T22:22:26.291Z,96903.19
2023-01-17T22:24:53.699Z,96893.09
2023-01-17T22:27:21.405Z,96888.50
2023-01-17T22:29:49.015Z,96905.00
2023-01-17T22:32:16.442Z,96906.81
2023-01-17T22:34:44.135Z,96910.69
2023-01-17T22:37:11.537Z,96918.25
2023-01-17T22:39:39.408Z,96920.38
2023-01-17T22:42:08.471Z,96938.59
2023-01-17T22:44:35.835Z,96961.28
2023-01-17T22:47:03.516Z,96945.50
2023-01-17T22:49:31.279Z,96945.63
2023-01-17T22:51:58.892Z,96935.91
2023-01-17T22:54:26.457Z,96927.19
2023-01-17T22:56:54.252Z,96934.06
2023-01-17T22:59:21.931Z,96951.00
2023-01-17T23:01:49.307Z,96954.31
2023-01-17T23:04:35.766Z,96952.72
2023-01-17T23:07:03.385Z,96953.31
2023-01-17T23:09:31.065Z,96981.75
2023-01-17T23:11:58.624Z,96988.91
2023-01-17T23:14:53.419Z,96987.97
2023-01-17T23:17:42.135Z,96991.16
2023-01-17T23:20:11.012Z,96982.06
2023-01-17T23:22:38.688Z,96985.25
2023-01-17T23:25:07.719Z,96984.44
2023-01-17T23:27:56.663Z,96986.25
2023-01-17T23:30:34.458Z,96999.63
2023-01-17T23:33:04.521Z,97003.25
2023-01-17T23:35:41.453Z,97004.72
2023-01-17T23:38:29.605Z,97001.78
2023-01-17T23:41:27.009Z,96983.75
2023-01-17T23:43:56.389Z,96975.97
2023-01-17T23:46:25.429Z,96979.03
2023-01-17T23:48:53.092Z,96984.25
2023-01-17T23:51:20.510Z,96984.31
2023-01-17T23:53:48.220Z,96987.72
2023-01-17T23:56:21.206Z,97006.72
2023-01-17T23:58:49.013Z,97008.66
